createdAt,value
2022-10-17T00:00:07.113Z,12.02
2022-10-17T00:01:07.194Z,12.02
2022-10-17T00:02:07.085Z,11.97
2022-10-17T00:03:07.072Z,12.02
2022-10-17T00:04:07.070Z,11.99
2022-10-17T00:05:07.084Z,12.06
2022-10-17T00:06:07.076Z,12.04
2022-10-17T00:07:07.025Z,12.04
2022-10-17T00:08:07.025Z,12.04
2022-10-17T00:09:07.007Z,12.03
2022-10-17T00:10:06.999Z,12.05
2022-10-17T00:11:07.005Z,12.05
2022-10-17T00:12:06.974Z,12.05
2022-10-17T00:13:06.972Z,12.09
2022-10-17T00:14:06.961Z,12.07
2022-10-17T00:15:06.943Z,12.09
2022-10-17T00:16:06.946Z,12.09
2022-10-17T00:17:06.908Z,12.09
2022-10-17T00:18:06.935Z,12.11
2022-10-17T00:19:06.885Z,12.15
2022-10-17T00:20:06.874Z,12.15
2022-10-17T00:21:06.877Z,12.15
2022-10-17T00:22:06.860Z,12.13
2022-10-17T00:23:06.840Z,12.15
2022-10-17T00:24:06.828Z,12.16
2022-10-17T00:25:06.807Z,12.16
2022-10-17T00:26:06.818Z,12.14
2022-10-17T00:27:06.790Z,12.18
2022-10-17T00:28:06.779Z,12.19
2022-10-17T00:29:06.809Z,12.15
2022-10-17T00:30:06.757Z,12.17
2022-10-17T00:31:06.753Z,12.20
2022-10-17T00:32:06.734Z,12.23
2022-10-17T00:33:06.718Z,12.18
2022-10-17T00:34:06.720Z,12.23
2022-10-17T00:35:06.694Z,12.21
2022-10-17T00:36:06.717Z,12.19
2022-10-17T00:37:06.668Z,12.23
2022-10-17T00:38:06.658Z,12.24
2022-10-17T00:39:06.645Z,12.23
2022-10-17T00:40:06.627Z,12.26
2022-10-17T00:41:06.624Z,12.24
2022-10-17T00:42:06.630Z,12.27
2022-10-17T00:43:06.604Z,12.27
2022-10-17T00:44:06.590Z,12.29
2022-10-17T00:45:06.579Z,12.29
2022-10-17T00:46:06.572Z,12.30
2022-10-17T00:47:06.549Z,12.30
2022-10-17T00:48:06.562Z,12.29
2022-10-17T00:49:06.532Z,12.31
2022-10-17T00:50:06.523Z,12.32
2022-10-17T00:51:06.506Z,12.33
2022-10-17T00:52:06.493Z,12.32
2022-10-17T00:53:06.512Z,12.36
2022-10-17T00:54:06.474Z,12.36
2022-10-17T00:55:06.456Z,12.35
2022-10-17T00:56:06.454Z,12.32
2022-10-17T00:57:06.441Z,12.36
2022-10-17T00:58:06.424Z,12.35
2022-10-17T01:00:06.400Z,12.38
2022-10-17T01:01:06.409Z,12.37
2022-10-17T01:02:06.382Z,12.43
2022-10-17T01:03:06.364Z,12.40
2022-10-17T01:04:06.373Z,12.40
2022-10-17T01:05:06.342Z,12.41
2022-10-17T01:06:06.333Z,12.38
2022-10-17T01:07:06.315Z,12.44
2022-10-17T01:08:06.307Z,12.46
2022-10-17T01:09:06.333Z,12.40
2022-10-17T01:10:06.305Z,12.46
2022-10-17T01:11:06.273Z,12.46
2022-10-17T01:12:06.269Z,12.52
2022-10-17T01:13:06.243Z,12.47
2022-10-17T01:14:06.229Z,12.54
2022-10-17T01:15:06.227Z,12.49
2022-10-17T01:16:06.232Z,12.55
2022-10-17T01:17:06.195Z,12.55
2022-10-17T01:18:06.193Z,12.53
2022-10-17T01:19:06.182Z,12.57
2022-10-17T01:20:06.178Z,12.57
2022-10-17T01:21:06.159Z,12.54
2022-10-17T01:22:06.166Z,12.60
2022-10-17T01:23:06.140Z,12.56
2022-10-17T01:24:06.123Z,12.61
2022-10-17T01:25:06.145Z,12.56
2022-10-17T01:26:06.102Z,12.60
2022-10-17T01:27:06.140Z,12.58
2022-10-17T01:28:06.075Z,12.64
2022-10-17T01:29:06.058Z,12.67
2022-10-17T01:30:06.057Z,12.67
2022-10-17T01:31:06.036Z,12.68
2022-10-17T01:32:06.045Z,12.67
2022-10-17T01:33:06.016Z,12.67
2022-10-17T01:34:06.010Z,12.68
2022-10-17T01:35:06.000Z,12.67
2022-10-17T01:36:06.170Z,12.68
2022-10-17T01:37:05.985Z,12.63
2022-10-17T01:38:05.965Z,12.65
2022-10-17T01:39:05.946Z,12.68
2022-10-17T01:40:05.946Z,12.68
2022-10-17T01:41:05.921Z,12.69
2022-10-17T01:42:05.909Z,12.70
2022-10-17T01:43:05.919Z,12.70
2022-10-17T01:44:05.896Z,12.70
2022-10-17T01:45:05.868Z,12.72
2022-10-17T01:46:05.859Z,12.73
2022-10-17T01:47:05.850Z,12.74
2022-10-17T01:48:05.856Z,12.70
2022-10-17T01:49:05.832Z,12.70
2022-10-17T01:50:05.822Z,12.73
2022-10-17T01:51:05.801Z,12.74
2022-10-17T01:52:05.804Z,12.76
2022-10-17T01:53:05.791Z,12.77
2022-10-17T01:54:05.765Z,12.74
2022-10-17T01:55:05.762Z,12.78
2022-10-17T01:56:05.750Z,12.79
2022-10-17T01:57:05.740Z,12.79
2022-10-17T01:58:05.743Z,12.74
2022-10-17T01:59:05.713Z,12.82
2022-10-17T02:00:05.699Z,12.84
2022-10-17T02:01:05.767Z,12.81
2022-10-17T02:02:05.680Z,12.86
2022-10-17T02:03:05.687Z,12.84
2022-10-17T02:04:05.649Z,12.85
2022-10-17T02:05:05.643Z,12.82
2022-10-17T02:06:05.640Z,12.92
2022-10-17T02:07:05.607Z,12.89
2022-10-17T02:08:05.629Z,12.93
2022-10-17T02:09:05.601Z,12.92
2022-10-17T02:10:05.581Z,12.89
2022-10-17T02:11:05.576Z,12.93
2022-10-17T02:12:05.561Z,12.97
2022-10-17T02:13:05.564Z,12.88
2022-10-17T02:14:05.568Z,12.96
2022-10-17T02:15:05.533Z,12.92
2022-10-17T02:16:05.514Z,12.97
2022-10-17T02:17:05.510Z,12.96
2022-10-17T02:18:05.512Z,12.99
2022-10-17T02:19:05.479Z,13.00
2022-10-17T02:20:05.479Z,12.98
2022-10-17T02:21:05.455Z,12.98
2022-10-17T02:22:05.452Z,12.97
2022-10-17T02:23:05.473Z,12.93
2022-10-17T02:24:05.434Z,12.95
2022-10-17T02:25:05.418Z,12.98
2022-10-17T02:26:05.405Z,12.98
2022-10-17T02:27:05.385Z,13.00
2022-10-17T02:28:05.372Z,13.01
2022-10-17T02:29:05.409Z,13.00
2022-10-17T02:30:05.356Z,13.02
2022-10-17T02:31:05.342Z,12.98
2022-10-17T02:32:05.327Z,13.02
2022-10-17T02:33:05.327Z,13.00
2022-10-17T02:34:05.306Z,12.98
2022-10-17T02:35:05.315Z,13.01
2022-10-17T02:36:05.289Z,12.99
2022-10-17T02:37:05.275Z,13.01
2022-10-17T02:38:05.254Z,13.00
2022-10-17T02:39:05.254Z,13.08
2022-10-17T02:40:05.256Z,13.06
2022-10-17T02:41:05.229Z,13.06
2022-10-17T02:42:05.217Z,13.09
2022-10-17T02:43:05.204Z,13.06
2022-10-17T02:44:05.190Z,13.09
2022-10-17T02:45:05.196Z,13.02
2022-10-17T02:46:05.165Z,13.11
2022-10-17T02:47:05.155Z,13.12
2022-10-17T02:48:05.143Z,13.05
2022-10-17T02:49:05.139Z,13.13
2022-10-17T02:50:05.136Z,13.09
2022-10-17T02:51:05.111Z,13.04
2022-10-17T02:52:05.100Z,13.05
2022-10-17T02:53:05.090Z,13.12
2022-10-17T02:54:05.069Z,13.10
2022-10-17T02:55:05.084Z,13.11
2022-10-17T02:56:05.048Z,13.07
2022-10-17T02:57:05.037Z,13.06
2022-10-17T02:58:05.030Z,13.13
2022-10-17T02:59:05.021Z,13.12
2022-10-17T03:00:05.091Z,13.13
2022-10-17T03:01:05.073Z,13.09
2022-10-17T03:02:04.981Z,13.16
2022-10-17T03:03:04.979Z,13.12
2022-10-17T03:04:04.967Z,13.09
2022-10-17T03:05:04.942Z,13.13
2022-10-17T03:06:04.950Z,13.15
2022-10-17T03:07:04.930Z,13.13
2022-10-17T03:08:04.910Z,13.14
2022-10-17T03:09:04.907Z,13.12
2022-10-17T03:10:04.891Z,13.13
2022-10-17T03:11:04.906Z,13.18
2022-10-17T03:12:04.868Z,13.18
2022-10-17T03:13:04.861Z,13.18
2022-10-17T03:14:04.840Z,13.18
2022-10-17T03:15:04.835Z,13.17
2022-10-17T03:16:04.816Z,13.18
2022-10-17T03:17:04.818Z,13.14
2022-10-17T03:18:04.798Z,13.10
2022-10-17T03:19:04.793Z,13.18
2022-10-17T03:20:04.774Z,13.10
2022-10-17T03:21:04.772Z,13.16
2022-10-17T03:22:04.775Z,13.13
2022-10-17T03:23:04.763Z,13.18
2022-10-17T03:24:04.731Z,13.13
2022-10-17T03:25:04.724Z,13.10
2022-10-17T03:26:04.709Z,13.16
2022-10-17T03:27:04.712Z,13.18
2022-10-17T03:28:04.685Z,13.16
2022-10-17T03:29:04.690Z,13.13
2022-10-17T03:30:04.668Z,13.14
2022-10-17T03:31:04.654Z,13.16
2022-10-17T03:32:04.635Z,13.17
2022-10-17T03:33:04.644Z,13.14
2022-10-17T03:34:04.613Z,13.22
2022-10-17T03:35:04.620Z,13.16
2022-10-17T03:36:04.604Z,13.16
2022-10-17T03:37:04.584Z,13.17
2022-10-17T03:38:04.573Z,13.26
2022-10-17T03:39:04.578Z,13.18
2022-10-17T03:40:04.544Z,13.21
2022-10-17T03:41:04.544Z,13.24
2022-10-17T03:42:04.527Z,13.20
2022-10-17T03:43:04.514Z,13.21
2022-10-17T03:44:04.517Z,13.21
2022-10-17T03:45:04.519Z,13.23
2022-10-17T03:46:04.510Z,13.24
2022-10-17T03:47:04.479Z,13.27
2022-10-17T03:48:04.458Z,13.27
2022-10-17T03:49:04.457Z,13.23
2022-10-17T03:50:04.437Z,13.26
2022-10-17T03:51:04.425Z,13.26
2022-10-17T03:52:04.411Z,13.29
2022-10-17T03:53:04.397Z,13.32
2022-10-17T03:54:04.397Z,13.33
2022-10-17T03:55:04.375Z,13.29
2022-10-17T03:56:04.376Z,13.29
2022-10-17T03:57:04.356Z,13.31
2022-10-17T03:58:04.338Z,13.32
2022-10-17T03:59:04.349Z,13.33
2022-10-17T04:00:04.321Z,13.35
2022-10-17T04:01:04.351Z,13.36
2022-10-17T04:02:04.291Z,13.38
2022-10-17T04:03:04.287Z,13.45
2022-10-17T04:04:04.289Z,13.39
2022-10-17T04:05:04.266Z,13.47
2022-10-17T04:06:04.247Z,13.46
2022-10-17T04:07:04.243Z,13.46
2022-10-17T04:08:04.943Z,13.51
2022-10-17T04:09:04.230Z,13.54
2022-10-17T04:10:04.202Z,13.51
2022-10-17T04:11:04.191Z,13.53
2022-10-17T04:12:04.180Z,13.57
2022-10-17T04:13:04.165Z,13.55
2022-10-17T04:14:04.170Z,13.53
2022-10-17T04:15:04.150Z,13.57
2022-10-17T04:16:04.127Z,13.61
2022-10-17T04:17:04.120Z,13.59
2022-10-17T04:19:04.114Z,13.60
2022-10-17T04:20:04.098Z,13.57
2022-10-17T04:21:04.079Z,13.65
2022-10-17T04:22:04.074Z,13.57
2022-10-17T04:23:04.074Z,13.58
2022-10-17T04:24:04.052Z,13.65
2022-10-17T04:25:04.031Z,13.65
2022-10-17T04:26:04.026Z,13.64
2022-10-17T04:27:04.019Z,13.65
2022-10-17T04:28:04.000Z,13.71
2022-10-17T04:29:04.025Z,13.67
2022-10-17T04:30:03.975Z,13.67
2022-10-17T04:31:03.962Z,13.70
2022-10-17T04:32:03.950Z,13.72
2022-10-17T04:33:03.930Z,13.67
2022-10-17T04:34:03.944Z,13.73
2022-10-17T04:35:03.914Z,13.66
2022-10-17T04:36:03.902Z,13.68
2022-10-17T04:37:03.901Z,13.73
2022-10-17T04:38:03.875Z,13.74
2022-10-17T04:39:03.939Z,13.73
2022-10-17T04:40:03.856Z,13.75
2022-10-17T04:41:03.843Z,13.75
2022-10-17T04:42:03.833Z,13.79
2022-10-17T04:43:03.816Z,13.80
2022-10-17T04:44:03.825Z,13.76
2022-10-17T04:45:03.801Z,13.76
2022-10-17T04:46:03.788Z,13.82
2022-10-17T04:47:03.775Z,13.84
2022-10-17T04:48:03.757Z,13.80
2022-10-17T04:49:03.786Z,13.82
2022-10-17T04:50:03.736Z,13.84
2022-10-17T04:51:03.727Z,13.84
2022-10-17T04:52:03.714Z,13.91
2022-10-17T04:53:03.713Z,13.83
2022-10-17T04:54:03.694Z,13.89
2022-10-17T04:55:03.706Z,13.85
2022-10-17T04:56:03.665Z,13.82
2022-10-17T04:57:03.662Z,13.83
2022-10-17T04:58:03.646Z,13.89
2022-10-17T04:59:03.639Z,13.87
2022-10-17T05:00:03.724Z,13.89
2022-10-17T05:01:03.714Z,13.87
2022-10-17T05:02:03.601Z,13.94
2022-10-17T05:03:03.597Z,13.89
2022-10-17T05:04:03.580Z,13.97
2022-10-17T05:05:03.566Z,13.94
2022-10-17T05:06:03.567Z,13.92
2022-10-17T05:07:03.577Z,13.94
2022-10-17T05:08:03.539Z,13.92
2022-10-17T05:09:03.518Z,13.94
2022-10-17T05:10:03.512Z,13.92
2022-10-17T05:11:03.508Z,13.97
2022-10-17T05:12:05.467Z,13.94
2022-10-17T05:13:03.473Z,14.01
2022-10-17T05:14:03.459Z,14.01
2022-10-17T05:15:03.460Z,14.00
2022-10-17T05:16:03.441Z,14.06
2022-10-17T05:17:03.449Z,14.02
2022-10-17T05:18:03.416Z,14.03
2022-10-17T05:19:03.409Z,14.00
2022-10-17T05:20:03.399Z,14.01
2022-10-17T05:21:03.385Z,14.05
2022-10-17T05:22:03.397Z,14.05
2022-10-17T05:23:03.359Z,14.09
2022-10-17T05:24:03.351Z,14.04
2022-10-17T05:25:03.326Z,14.06
2022-10-17T05:26:03.322Z,14.09
2022-10-17T05:27:03.339Z,14.12
2022-10-17T05:28:03.303Z,14.14
2022-10-17T05:29:03.370Z,14.10
2022-10-17T05:30:03.283Z,14.13
2022-10-17T05:31:03.268Z,14.16
2022-10-17T05:32:03.271Z,14.18
2022-10-17T05:33:03.250Z,14.19
2022-10-17T05:34:03.235Z,14.17
2022-10-17T05:35:03.219Z,14.17
2022-10-17T05:36:03.201Z,14.20
2022-10-17T05:37:03.215Z,14.15
2022-10-17T05:38:03.184Z,14.16
2022-10-17T05:39:03.182Z,14.18
2022-10-17T05:40:03.171Z,14.27
2022-10-17T05:41:03.159Z,14.20
2022-10-17T05:42:03.150Z,14.17
2022-10-17T05:43:03.131Z,14.24
2022-10-17T05:44:05.455Z,14.23
2022-10-17T05:45:03.104Z,14.25
2022-10-17T05:46:03.095Z,14.27
2022-10-17T05:47:03.103Z,14.23
2022-10-17T05:48:03.066Z,14.27
2022-10-17T05:49:10.657Z,14.22
2022-10-17T05:50:04.044Z,14.35
2022-10-17T05:51:03.042Z,14.24
2022-10-17T05:52:03.036Z,14.32
2022-10-17T05:53:03.023Z,14.29
2022-10-17T05:54:03.004Z,14.34
2022-10-17T05:55:02.995Z,14.31
2022-10-17T05:56:02.973Z,14.31
2022-10-17T05:57:02.983Z,14.32
2022-10-17T05:58:02.966Z,14.29
2022-10-17T05:59:02.938Z,14.32
2022-10-17T06:00:02.933Z,14.35
2022-10-17T06:01:02.916Z,14.34
2022-10-17T06:02:02.976Z,14.34
2022-10-17T06:03:02.913Z,14.35
2022-10-17T06:04:02.877Z,14.37
2022-10-17T06:05:02.873Z,14.35
2022-10-17T06:06:02.863Z,14.36
2022-10-17T06:07:02.853Z,14.34
2022-10-17T06:08:02.825Z,14.35
2022-10-17T06:09:02.835Z,14.37
2022-10-17T06:10:02.807Z,14.43
2022-10-17T06:11:06.060Z,14.35
2022-10-17T06:12:03.785Z,14.40
2022-10-17T06:13:02.780Z,14.36
2022-10-17T06:14:02.786Z,14.42
2022-10-17T06:15:02.748Z,14.41
2022-10-17T06:16:02.742Z,14.44
2022-10-17T06:17:02.731Z,14.41
2022-10-17T06:18:02.716Z,14.40
2022-10-17T06:19:02.706Z,14.42
2022-10-17T06:20:02.707Z,14.44
2022-10-17T06:21:02.683Z,14.43
2022-10-17T06:22:02.680Z,14.40
2022-10-17T06:23:02.667Z,14.39
2022-10-17T06:24:02.658Z,14.44
2022-10-17T06:25:02.654Z,14.39
2022-10-17T06:26:02.631Z,14.39
2022-10-17T06:27:02.613Z,14.40
2022-10-17T06:28:02.599Z,14.39
2022-10-17T06:29:02.622Z,14.39
2022-10-17T06:30:02.607Z,14.42
2022-10-17T06:31:02.566Z,14.38
2022-10-17T06:32:02.564Z,14.41
2022-10-17T06:33:02.547Z,14.42
2022-10-17T06:34:02.531Z,14.37
2022-10-17T06:35:02.540Z,14.41
2022-10-17T06:36:02.507Z,14.38
2022-10-17T06:37:02.544Z,14.40
2022-10-17T06:38:02.495Z,14.47
2022-10-17T06:39:02.480Z,14.40
2022-10-17T06:40:02.495Z,14.39
2022-10-17T06:41:02.443Z,14.39
2022-10-17T06:42:02.434Z,14.38
2022-10-17T06:43:02.430Z,14.38
2022-10-17T06:44:02.413Z,14.41
2022-10-17T06:45:02.418Z,14.35
2022-10-17T06:46:02.407Z,14.38
2022-10-17T06:47:02.396Z,14.36
2022-10-17T06:48:02.373Z,14.32
2022-10-17T06:49:02.362Z,14.39
2022-10-17T06:50:02.342Z,14.37
2022-10-17T06:51:02.364Z,14.36
2022-10-17T06:52:02.335Z,14.42
2022-10-17T06:53:02.315Z,14.36
2022-10-17T06:54:02.310Z,14.35
2022-10-17T06:56:02.278Z,14.34
2022-10-17T06:57:02.339Z,14.34
2022-10-17T06:58:02.256Z,14.34
2022-10-17T06:59:02.232Z,14.38
2022-10-17T07:00:02.233Z,14.40
2022-10-17T07:01:02.334Z,14.34
2022-10-17T07:02:02.228Z,14.39
2022-10-17T07:03:02.197Z,14.37
2022-10-17T07:04:02.183Z,14.42
2022-10-17T07:05:02.169Z,14.41
2022-10-17T07:06:02.157Z,14.46
2022-10-17T07:07:02.162Z,14.48
2022-10-17T07:08:02.146Z,14.52
2022-10-17T07:09:02.117Z,14.54
2022-10-17T07:10:02.119Z,14.56
2022-10-17T07:11:02.090Z,14.60
2022-10-17T07:12:02.084Z,14.70
2022-10-17T07:13:02.090Z,14.86
2022-10-17T07:14:02.065Z,14.96
2022-10-17T07:15:02.044Z,15.09
2022-10-17T07:16:02.067Z,15.26
2022-10-17T07:17:02.033Z,15.41
2022-10-17T07:18:02.031Z,15.77
2022-10-17T07:19:02.006Z,15.98
2022-10-17T07:20:01.997Z,16.52
2022-10-17T07:21:01.987Z,16.84
2022-10-17T07:22:01.965Z,17.42
2022-10-17T07:23:01.957Z,17.99
2022-10-17T07:24:01.966Z,18.92
2022-10-17T07:25:01.933Z,19.86
2022-10-17T07:26:01.927Z,21.01
2022-10-17T07:27:01.909Z,22.22
2022-10-17T07:28:01.909Z,23.35
2022-10-17T07:29:02.033Z,23.93
2022-10-17T07:30:01.873Z,24.11
2022-10-17T07:31:01.870Z,24.69
2022-10-17T07:32:01.911Z,25.45
2022-10-17T07:33:01.852Z,25.97
2022-10-17T07:34:01.849Z,26.71
2022-10-17T07:35:01.817Z,27.73
2022-10-17T07:36:01.813Z,28.76
2022-10-17T07:37:01.802Z,30.25
2022-10-17T07:38:01.787Z,31.51
2022-10-17T07:39:01.781Z,32.49
2022-10-17T07:40:01.764Z,33.08
2022-10-17T07:41:01.764Z,33.18
2022-10-17T07:42:01.741Z,33.21
2022-10-17T07:43:01.730Z,32.79
2022-10-17T07:44:01.752Z,32.14
2022-10-17T07:45:01.701Z,32.26
2022-10-17T07:46:01.690Z,32.64
2022-10-17T07:47:01.685Z,33.21
2022-10-17T07:48:01.669Z,33.47
2022-10-17T07:49:01.675Z,33.44
2022-10-17T07:50:01.653Z,33.71
2022-10-17T07:51:01.653Z,34.10
2022-10-17T07:52:01.631Z,34.35
2022-10-17T07:53:01.602Z,34.92
2022-10-17T07:54:01.630Z,35.21
2022-10-17T07:55:01.594Z,35.56
2022-10-17T07:56:01.582Z,35.93
2022-10-17T07:57:01.571Z,36.21
2022-10-17T07:58:01.576Z,36.55
2022-10-17T07:59:03.836Z,37.04
2022-10-17T08:00:02.536Z,37.77
2022-10-17T08:02:01.504Z,39.69
2022-10-17T08:03:01.503Z,40.89
2022-10-17T08:04:01.484Z,41.62
2022-10-17T08:05:01.497Z,42.54
2022-10-17T08:06:01.463Z,43.42
2022-10-17T08:07:18.257Z,44.24
2022-10-17T08:08:02.512Z,45.00
2022-10-17T08:09:01.426Z,45.53
2022-10-17T08:10:01.500Z,46.28
2022-10-17T08:11:01.427Z,47.03
2022-10-17T08:12:01.395Z,47.17
2022-10-17T08:13:01.379Z,47.73
2022-10-17T08:14:01.370Z,47.84
2022-10-17T08:15:01.358Z,48.67
2022-10-17T08:16:01.361Z,49.44
2022-10-17T08:17:01.326Z,49.62
2022-10-17T08:18:01.339Z,50.06
2022-10-17T08:19:01.363Z,51.60
2022-10-17T08:20:01.307Z,52.69
2022-10-17T08:21:01.296Z,53.23
2022-10-17T08:22:01.268Z,53.74
2022-10-17T08:23:01.259Z,54.05
2022-10-17T08:24:01.254Z,54.40
2022-10-17T08:25:01.234Z,52.60
2022-10-17T08:26:01.233Z,52.14
2022-10-17T08:27:01.246Z,51.91
2022-10-17T08:28:01.277Z,52.99
2022-10-17T08:29:01.247Z,53.81
2022-10-17T08:30:01.187Z,55.11
2022-10-17T08:31:01.161Z,56.29
2022-10-17T08:32:02.439Z,56.60
2022-10-17T08:33:01.149Z,57.69
2022-10-17T08:34:01.144Z,58.69
2022-10-17T08:35:08.915Z,59.69
2022-10-17T08:36:01.115Z,60.21
2022-10-17T08:37:01.130Z,61.21
2022-10-17T08:38:01.113Z,61.89
2022-10-17T08:39:01.075Z,62.86
2022-10-17T08:40:01.075Z,64.11
2022-10-17T08:41:01.056Z,64.50
2022-10-17T08:42:01.041Z,64.80
2022-10-17T08:43:01.049Z,65.46
2022-10-17T08:44:01.018Z,65.46
2022-10-17T08:45:01.005Z,65.46
2022-10-17T08:46:01.015Z,64.45
2022-10-17T08:47:00.988Z,64.40
2022-10-17T08:48:00.969Z,64.31
2022-10-17T08:49:00.966Z,63.82
2022-10-17T08:50:00.957Z,63.87
2022-10-17T08:51:00.936Z,63.96
2022-10-17T08:52:00.914Z,63.77
2022-10-17T08:53:00.921Z,63.38
2022-10-17T08:54:00.919Z,63.82
2022-10-17T08:55:00.881Z,64.65
2022-10-17T08:56:01.020Z,65.10
2022-10-17T08:57:00.866Z,64.85
2022-10-17T08:58:00.849Z,64.50
2022-10-17T08:59:00.847Z,63.48
2022-10-17T09:00:00.859Z,59.40
2022-10-17T09:01:00.813Z,56.87
2022-10-17T09:02:00.815Z,54.90
2022-10-17T09:03:00.844Z,54.58
2022-10-17T09:04:00.790Z,53.91
2022-10-17T09:05:00.785Z,55.01
2022-10-17T09:06:00.761Z,56.45
2022-10-17T09:07:00.751Z,57.84
2022-10-17T09:08:00.729Z,58.53
2022-10-17T09:09:00.730Z,58.04
2022-10-17T09:10:00.720Z,57.96
2022-10-17T09:11:00.739Z,57.65
2022-10-17T09:12:00.722Z,57.41
2022-10-17T09:13:05.358Z,56.67
2022-10-17T09:14:01.683Z,52.08
2022-10-17T09:15:00.667Z,47.87
2022-10-17T09:16:00.662Z,45.88
2022-10-17T09:17:00.635Z,45.83
2022-10-17T09:18:00.647Z,45.58
2022-10-17T09:19:00.704Z,44.38
2022-10-17T09:20:00.608Z,42.03
2022-10-17T09:21:00.584Z,42.33
2022-10-17T09:22:00.594Z,44.47
2022-10-17T09:23:00.567Z,46.34
2022-10-17T09:24:09.334Z,48.08
2022-10-17T09:25:01.536Z,50.39
2022-10-17T09:26:00.525Z,52.53
2022-10-17T09:27:00.534Z,54.29
2022-10-17T09:28:00.509Z,56.11
2022-10-17T09:29:00.550Z,57.69
2022-10-17T09:30:00.658Z,59.31
2022-10-17T09:31:00.471Z,61.48
2022-10-17T09:32:00.482Z,62.91
2022-10-17T09:33:00.451Z,64.31
2022-10-17T09:34:00.439Z,65.05
2022-10-17T09:35:00.420Z,66.65
2022-10-17T09:36:00.405Z,67.34
2022-10-17T09:37:00.407Z,67.45
2022-10-17T09:38:00.406Z,68.55
2022-10-17T09:39:00.387Z,68.39
2022-10-17T09:40:00.372Z,67.94
2022-10-17T09:41:00.435Z,67.29
2022-10-17T09:42:00.346Z,66.54
2022-10-17T09:43:00.350Z,66.23
2022-10-17T09:44:00.319Z,66.23
2022-10-17T09:45:00.308Z,66.13
2022-10-17T09:46:00.296Z,65.92
2022-10-17T09:47:00.284Z,65.10
2022-10-17T09:48:01.735Z,63.48
2022-10-17T09:49:00.280Z,64.35
2022-10-17T09:50:00.255Z,63.72
2022-10-17T09:51:14.756Z,62.35
2022-10-17T09:52:01.222Z,63.58
2022-10-17T09:53:00.219Z,65.15
2022-10-17T09:54:00.219Z,64.01
2022-10-17T09:55:00.195Z,64.35
2022-10-17T09:56:00.183Z,65.61
2022-10-17T09:57:00.167Z,68.33
2022-10-17T09:58:00.185Z,70.51
2022-10-17T09:59:00.157Z,72.96
2022-10-17T10:00:00.198Z,75.51
2022-10-17T10:01:00.143Z,76.20
2022-10-17T10:02:00.119Z,77.82
2022-10-17T10:03:00.093Z,78.40
2022-10-17T10:04:00.090Z,78.32
2022-10-17T10:05:04.208Z,79.59
2022-10-17T10:06:00.064Z,80.58
2022-10-17T10:07:00.049Z,81.91
2022-10-17T10:08:00.033Z,83.71
2022-10-17T10:09:00.012Z,84.98
2022-10-17T10:10:00.036Z,86.02
2022-10-17T10:11:00.003Z,85.24
2022-10-17T10:12:00.000Z,81.36
2022-10-17T10:12:59.975Z,80.27
2022-10-17T10:13:59.971Z,78.47
2022-10-17T10:14:59.956Z,76.33
2022-10-17T10:15:59.961Z,77.46
2022-10-17T10:16:59.925Z,80.89
2022-10-17T10:17:59.916Z,83.29
2022-10-17T10:18:59.908Z,84.13
2022-10-17T10:19:59.905Z,78.32
2022-10-17T10:20:59.899Z,74.64
2022-10-17T10:21:59.867Z,75.04
2022-10-17T10:22:59.858Z,75.17
2022-10-17T10:23:59.881Z,76.40
2022-10-17T10:24:59.835Z,78.40
2022-10-17T10:25:59.848Z,80.19
2022-10-17T10:26:59.808Z,80.89
2022-10-17T10:28:01.378Z,83.29
2022-10-17T10:28:59.913Z,83.38
2022-10-17T10:29:59.776Z,79.51
2022-10-17T10:30:59.759Z,81.04
2022-10-17T10:31:59.769Z,85.67
2022-10-17T10:32:59.735Z,89.40
2022-10-17T10:33:59.733Z,92.45
2022-10-17T10:34:59.719Z,95.07
2022-10-17T10:35:59.715Z,94.53
2022-10-17T10:36:59.699Z,91.95
2022-10-17T10:37:59.711Z,93.69
2022-10-17T10:39:02.422Z,95.36
2022-10-17T10:40:00.663Z,98.38
2022-10-17T10:40:59.779Z,101.46
2022-10-17T10:41:59.640Z,103.84
2022-10-17T10:43:04.864Z,106.21
2022-10-17T10:44:00.625Z,107.98
2022-10-17T10:44:59.607Z,109.17
2022-10-17T10:45:59.594Z,110.75
2022-10-17T10:46:59.582Z,112.53
2022-10-17T10:47:59.592Z,111.19
2022-10-17T10:48:59.552Z,111.56
2022-10-17T10:49:59.559Z,109.67
2022-10-17T10:50:59.534Z,107.70
2022-10-17T10:51:59.522Z,104.62
2022-10-17T10:52:59.532Z,100.73
2022-10-17T10:53:59.507Z,101.22
2022-10-17T10:54:59.508Z,103.21
2022-10-17T10:55:59.480Z,102.51
2022-10-17T10:56:59.470Z,91.45
2022-10-17T10:57:59.475Z,80.65
2022-10-17T10:58:59.440Z,75.24
2022-10-17T10:59:59.443Z,74.05
2022-10-17T11:00:59.568Z,72.89
2022-10-17T11:01:59.422Z,72.33
2022-10-17T11:03:01.679Z,74.64
2022-10-17T11:03:59.403Z,77.03
2022-10-17T11:04:59.374Z,77.89
2022-10-17T11:05:59.365Z,76.82
2022-10-17T11:06:59.355Z,77.25
2022-10-17T11:07:59.345Z,78.47
2022-10-17T11:08:59.331Z,79.81
2022-10-17T11:09:59.335Z,82.23
2022-10-17T11:10:59.304Z,84.13
2022-10-17T11:11:59.288Z,84.98
2022-10-17T11:12:59.287Z,85.24
2022-10-17T11:13:59.282Z,84.89
2022-10-17T11:14:59.292Z,85.06
2022-10-17T11:15:59.259Z,86.91
2022-10-17T11:16:59.236Z,87.91
2022-10-17T11:17:59.226Z,88.37
2022-10-17T11:18:59.218Z,88.09
2022-10-17T11:19:59.196Z,86.55
2022-10-17T11:20:59.197Z,84.29
2022-10-17T11:21:59.178Z,83.13
2022-10-17T11:22:59.178Z,82.64
2022-10-17T11:23:59.158Z,84.29
2022-10-17T11:24:59.150Z,86.02
2022-10-17T11:25:59.155Z,88.46
2022-10-17T11:26:59.121Z,90.17
2022-10-17T11:28:04.448Z,92.56
2022-10-17T11:29:00.225Z,94.03
2022-10-17T11:29:59.097Z,95.91
2022-10-17T11:30:59.100Z,96.35
2022-10-17T11:31:59.090Z,95.69
2022-10-17T11:32:59.057Z,96.68
2022-10-17T11:33:59.051Z,96.29
2022-10-17T11:34:59.036Z,95.20
2022-10-17T11:35:59.073Z,94.99
2022-10-17T11:36:59.013Z,96.68
2022-10-17T11:37:58.990Z,99.42
2022-10-17T11:38:58.980Z,102.14
2022-10-17T11:39:58.972Z,103.59
2022-10-17T11:40:58.963Z,105.81
2022-10-17T11:42:00.879Z,109.74
2022-10-17T11:42:58.941Z,112.99
2022-10-17T11:43:58.924Z,115.00
2022-10-17T11:44:58.926Z,119.66
2022-10-17T11:45:58.903Z,121.30
2022-10-17T11:46:58.922Z,121.74
2022-10-17T11:47:58.881Z,121.39
2022-10-17T11:48:58.863Z,121.21
2022-10-17T11:51:59.842Z,123.89
2022-10-17T11:52:01.617Z,123.26
2022-10-17T11:52:59.020Z,115.47
2022-10-17T11:53:58.813Z,106.07
2022-10-17T11:54:58.809Z,98.55
2022-10-17T11:55:58.796Z,92.66
2022-10-17T11:56:58.784Z,88.37
2022-10-17T11:57:58.791Z,83.13
2022-10-17T11:58:58.764Z,80.27
2022-10-17T11:59:58.746Z,79.51
2022-10-17T12:00:58.734Z,77.96
2022-10-17T12:01:58.718Z,76.13
2022-10-17T12:02:58.727Z,75.11
2022-10-17T12:03:58.736Z,75.38
2022-10-17T12:04:58.688Z,76.47
2022-10-17T12:05:58.686Z,77.46
2022-10-17T12:06:58.662Z,79.36
2022-10-17T12:07:58.654Z,82.39
2022-10-17T12:08:58.667Z,84.55
2022-10-17T12:09:58.815Z,84.55
2022-10-17T12:10:58.619Z,84.04
2022-10-17T12:11:58.610Z,85.32
2022-10-17T12:12:58.602Z,85.41
2022-10-17T12:14:00.055Z,86.29
2022-10-17T12:14:58.571Z,85.32
2022-10-17T12:15:58.549Z,85.67
2022-10-17T12:16:58.548Z,87.54
2022-10-17T12:17:58.534Z,89.12
2022-10-17T12:18:58.521Z,87.54
2022-10-17T12:19:58.522Z,83.54
2022-10-17T12:20:58.502Z,80.04
2022-10-17T12:21:58.482Z,78.11
2022-10-17T12:22:58.491Z,75.24
2022-10-17T12:23:58.459Z,74.64
2022-10-17T12:24:58.469Z,74.18
2022-10-17T12:26:01.682Z,73.02
2022-10-17T12:26:59.431Z,72.02
2022-10-17T12:27:58.422Z,70.86
2022-10-17T12:28:58.445Z,69.17
2022-10-17T12:29:58.397Z,67.94
2022-10-17T12:30:58.403Z,67.89
2022-10-17T12:31:58.371Z,67.94
2022-10-17T12:33:07.142Z,66.70
2022-10-17T12:33:59.335Z,66.44
2022-10-17T12:34:58.343Z,66.28
2022-10-17T12:35:58.359Z,66.97
2022-10-17T12:36:58.320Z,69.29
2022-10-17T12:37:59.324Z,71.41
2022-10-17T12:38:58.295Z,71.71
2022-10-17T12:39:58.280Z,69.17
2022-10-17T12:40:58.284Z,67.08
2022-10-17T12:41:58.256Z,64.40
2022-10-17T12:42:58.238Z,62.86
2022-10-17T12:43:58.232Z,60.08
2022-10-17T12:44:58.219Z,57.53
2022-10-17T12:45:58.223Z,55.44
2022-10-17T12:46:58.201Z,53.98
2022-10-17T12:47:58.194Z,52.08
2022-10-17T12:48:58.180Z,50.27
2022-10-17T12:49:58.167Z,48.81
2022-10-17T12:51:12.151Z,47.27
2022-10-17T12:51:59.128Z,45.68
2022-10-17T12:52:58.136Z,44.66
2022-10-17T12:53:58.115Z,43.51
2022-10-17T12:55:11.494Z,42.46
2022-10-17T12:55:59.109Z,40.42